sensor_id;sensor_type;location;lat;lon;timestamp;pressure;altitude;pressure_sealevel;temperature;humidity
53522;BME280;39398;48.382;9.802;2023-01-09T00:05:01;92268.50;;;5.13;100.00
53522;BME280;39398;48.382;9.802;2023-01-09T00:10:05;92260.06;;;5.11;100.00
53522;BME280;39398;48.382;9.802;2023-01-09T00:15:08;92262.66;;;5.05;100.00
53522;BME280;39398;48.382;9.802;2023-01-09T00:20:12;92263.47;;;5.12;100.00
53522;BME280;39398;48.382;9.802;2023-01-09T00:25:17;92259.66;;;5.08;100.00
53522;BME280;39398;48.382;9.802;2023-01-09T00:30:19;92249.59;;;5.05;100.00
53522;BME280;39398;48.382;9.802;2023-01-09T00:35:23;92234.47;;;5.07;100.00
53522;BME280;39398;48.382;9.802;2023-01-09T00:40:28;92230.66;;;5.16;100.00
53522;BME280;39398;48.382;9.802;2023-01-09T00:45:30;92227.84;;;5.04;100.00
53522;BME280;39398;48.382;9.802;2023-01-09T00:50:32;92219.19;;;4.97;100.00
53522;BME280;39398;48.382;9.802;2023-01-09T00:55:37;92213.75;;;4.99;100.00
53522;BME280;39398;48.382;9.802;2023-01-09T01:00:40;92205.13;;;4.92;100.00
53522;BME280;39398;48.382;9.802;2023-01-09T01:05:43;92208.94;;;4.89;100.00
53522;BME280;39398;48.382;9.802;2023-01-09T01:10:47;92213.16;;;4.97;100.00
53522;BME280;39398;48.382;9.802;2023-01-09T01:15:50;92210.13;;;4.80;100.00
53522;BME280;39398;48.382;9.802;2023-01-09T01:20:53;92203.09;;;5.00;100.00
53522;BME280;39398;48.382;9.802;2023-01-09T01:26:02;92211.94;;;4.99;100.00
53522;BME280;39398;48.382;9.802;2023-01-09T01:31:04;92207.75;;;5.05;100.00
53522;BME280;39398;48.382;9.802;2023-01-09T01:36:08;92208.13;;;5.08;100.00
53522;BME280;39398;48.382;9.802;2023-01-09T01:41:12;92200.47;;;4.94;100.00
53522;BME280;39398;48.382;9.802;2023-01-09T01:46:15;92185.59;;;5.01;100.00
53522;BME280;39398;48.382;9.802;2023-01-09T01:51:18;92176.75;;;4.88;100.00
53522;BME280;39398;48.382;9.802;2023-01-09T01:56:26;92174.94;;;4.96;100.00
53522;BME280;39398;48.382;9.802;2023-01-09T02:01:30;92175.97;;;5.08;100.00
53522;BME280;39398;48.382;9.802;2023-01-09T02:06:33;92181.38;;;5.00;100.00
53522;BME280;39398;48.382;9.802;2023-01-09T02:11:43;92174.31;;;4.94;100.00
53522;BME280;39398;48.382;9.802;2023-01-09T02:16:51;92190.44;;;5.17;100.00
53522;BME280;39398;48.382;9.802;2023-01-09T02:22:03;92178.56;;;5.01;100.00
53522;BME280;39398;48.382;9.802;2023-01-09T02:27:22;92192.63;;;5.00;100.00
53522;BME280;39398;48.382;9.802;2023-01-09T02:32:40;92187.41;;;5.13;100.00
53522;BME280;39398;48.382;9.802;2023-01-09T02:37:50;92179.56;;;5.07;100.00
53522;BME280;39398;48.382;9.802;2023-01-09T02:42:58;92176.94;;;5.13;100.00
53522;BME280;39398;48.382;9.802;2023-01-09T02:48:02;92167.72;;;5.04;100.00
53522;BME280;39398;48.382;9.802;2023-01-09T02:59:03;92186.81;;;5.18;100.00
53522;BME280;39398;48.382;9.802;2023-01-09T03:04:17;92189.81;;;5.22;100.00
53522;BME280;39398;48.382;9.802;2023-01-09T03:09:23;92184.38;;;5.10;100.00
53522;BME280;39398;48.382;9.802;2023-01-09T03:14:29;92180.16;;;5.16;100.00
53522;BME280;39398;48.382;9.802;2023-01-09T03:19:35;92187.81;;;5.24;100.00
53522;BME280;39398;48.382;9.802;2023-01-09T03:24:39;92191.25;;;5.31;100.00
53522;BME280;39398;48.382;9.802;2023-01-09T03:29:41;92210.56;;;5.30;100.00
53522;BME280;39398;48.382;9.802;2023-01-09T03:34:45;92216.59;;;5.24;100.00
53522;BME280;39398;48.382;9.802;2023-01-09T03:39:57;92224.06;;;5.27;100.00
53522;BME280;39398;48.382;9.802;2023-01-09T03:44:59;92234.72;;;5.25;100.00
53522;BME280;39398;48.382;9.802;2023-01-09T03:50:04;92256.03;;;5.16;100.00
53522;BME280;39398;48.382;9.802;2023-01-09T03:55:08;92287.25;;;5.24;100.00
53522;BME280;39398;48.382;9.802;2023-01-09T04:00:12;92323.22;;;5.02;100.00
53522;BME280;39398;48.382;9.802;2023-01-09T04:05:16;92306.94;;;5.20;100.00
53522;BME280;39398;48.382;9.802;2023-01-09T04:10:18;92319.22;;;5.19;100.00
53522;BME280;39398;48.382;9.802;2023-01-09T04:15:20;92322.59;;;5.06;100.00
53522;BME280;39398;48.382;9.802;2023-01-09T04:20:25;92326.22;;;4.99;100.00
53522;BME280;39398;48.382;9.802;2023-01-09T04:25:28;92338.91;;;5.02;100.00
53522;BME280;39398;48.382;9.802;2023-01-09T04:30:31;92347.13;;;4.51;100.00
53522;BME280;39398;48.382;9.802;2023-01-09T04:35:35;92362.69;;;4.72;100.00
53522;BME280;39398;48.382;9.802;2023-01-09T04:40:38;92345.44;;;4.78;100.00
53522;BME280;39398;48.382;9.802;2023-01-09T04:45:40;92352.25;;;4.72;100.00
53522;BME280;39398;48.382;9.802;2023-01-09T04:50:43;92379.56;;;4.63;100.00
53522;BME280;39398;48.382;9.802;2023-01-09T04:55:45;92379.44;;;4.84;100.00
53522;BME280;39398;48.382;9.802;2023-01-09T05:00:47;92377.97;;;4.69;100.00
53522;BME280;39398;48.382;9.802;2023-01-09T05:05:50;92387.19;;;4.30;100.00
53522;BME280;39398;48.382;9.802;2023-01-09T05:10:53;92403.84;;;4.22;100.00
53522;BME280;39398;48.382;9.802;2023-01-09T05:15:55;92433.59;;;4.00;100.00
53522;BME280;39398;48.382;9.802;2023-01-09T05:21:00;92455.91;;;4.02;100.00
53522;BME280;39398;48.382;9.802;2023-01-09T05:26:02;92472.94;;;3.98;100.00
53522;BME280;39398;48.382;9.802;2023-01-09T05:31:05;92467.50;;;3.93;100.00
53522;BME280;39398;48.382;9.802;2023-01-09T05:36:08;92479.41;;;3.81;100.00
53522;BME280;39398;48.382;9.802;2023-01-09T05:41:13;92500.47;;;3.58;100.00
53522;BME280;39398;48.382;9.802;2023-01-09T06:22:14;92533.41;;;3.44;100.00
53522;BME280;39398;48.382;9.802;2023-01-09T06:27:19;92547.09;;;3.46;100.00
53522;BME280;39398;48.382;9.802;2023-01-09T06:32:23;92546.09;;;3.47;100.00
53522;BME280;39398;48.382;9.802;2023-01-09T06:37:27;92553.00;;;3.55;100.00
53522;BME280;39398;48.382;9.802;2023-01-09T06:42:30;92551.13;;;3.48;100.00
53522;BME280;39398;48.382;9.802;2023-01-09T06:47:34;92559.78;;;3.34;100.00
53522;BME280;39398;48.382;9.802;2023-01-09T06:52:39;92569.03;;;3.37;100.00
53522;BME280;39398;48.382;9.802;2023-01-09T06:57:42;92589.09;;;3.36;100.00
53522;BME280;39398;48.382;9.802;2023-01-09T07:02:51;92588.91;;;3.53;100.00
53522;BME280;39398;48.382;9.802;2023-01-09T07:07:55;92602.69;;;3.61;100.00
53522;BME280;39398;48.382;9.802;2023-01-09T07:12:58;92606.72;;;3.49;100.00
53522;BME280;39398;48.382;9.802;2023-01-09T07:18:03;92610.09;;;3.79;100.00
53522;BME280;39398;48.382;9.802;2023-01-09T07:23:10;92611.19;;;3.70;100.00
53522;BME280;39398;48.382;9.802;2023-01-09T07:28:15;92624.06;;;3.71;100.00
53522;BME280;39398;48.382;9.802;2023-01-09T07:33:20;92628.66;;;3.84;100.00
53522;BME280;39398;48.382;9.802;2023-01-09T07:38:25;92619.22;;;3.68;100.00
53522;BME280;39398;48.382;9.802;2023-01-09T07:43:29;92625.16;;;3.62;100.00
53522;BME280;39398;48.382;9.802;2023-01-09T07:48:31;92633.28;;;3.67;100.00
53522;BME280;39398;48.382;9.802;2023-01-09T07:53:38;92640.53;;;3.87;100.00
53522;BME280;39398;48.382;9.802;2023-01-09T07:58:42;92645.47;;;3.82;100.00
53522;BME280;39398;48.382;9.802;2023-01-09T08:03:47;92649.91;;;3.66;100.00
53522;BME280;39398;48.382;9.802;2023-01-09T08:08:51;92640.38;;;3.73;100.00
53522;BME280;39398;48.382;9.802;2023-01-09T08:13:54;92640.00;;;3.77;100.00
53522;BME280;39398;48.382;9.802;2023-01-09T08:18:58;92641.44;;;3.79;100.00
53522;BME280;39398;48.382;9.802;2023-01-09T08:24:04;92650.25;;;3.63;100.00
53522;BME280;39398;48.382;9.802;2023-01-09T08:29:11;92649.81;;;3.60;100.00
53522;BME280;39398;48.382;9.802;2023-01-09T08:34:13;92641.91;;;3.68;100.00
53522;BME280;39398;48.382;9.802;2023-01-09T08:39:18;92629.31;;;3.71;100.00
53522;BME280;39398;48.382;9.802;2023-01-09T08:44:20;92642.88;;;3.67;100.00
53522;BME280;39398;48.382;9.802;2023-01-09T08:49:24;92650.34;;;3.40;100.00
53522;BME280;39398;48.382;9.802;2023-01-09T08:54:28;92647.84;;;3.32;100.00
53522;BME280;39398;48.382;9.802;2023-01-09T08:59:32;92643.50;;;3.54;100.00
53522;BME280;39398;48.382;9.802;2023-01-09T09:04:35;92652.72;;;3.35;100.00
53522;BME280;39398;48.382;9.802;2023-01-09T09:09:39;92647.47;;;3.20;100.00
53522;BME280;39398;48.382;9.802;2023-01-09T09:14:43;92638.28;;;3.24;100.00
53522;BME280;39398;48.382;9.802;2023-01-09T09:19:46;92639.31;;;3.38;100.00
53522;BME280;39398;48.382;9.802;2023-01-09T09:24:51;92638.91;;;3.12;100.00
53522;BME280;39398;48.382;9.802;2023-01-09T09:29:54;92648.28;;;3.36;100.00
53522;BME280;39398;48.382;9.802;2023-01-09T09:34:57;92640.91;;;3.39;100.00
53522;BME280;39398;48.382;9.802;2023-01-09T09:40:01;92642.00;;;3.30;100.00
53522;BME280;39398;48.382;9.802;2023-01-09T09:45:29;92651.16;;;3.41;100.00
53522;BME280;39398;48.382;9.802;2023-01-09T09:50:55;92648.03;;;3.45;100.00
53522;BME280;39398;48.382;9.802;2023-01-09T09:56:04;92638.13;;;3.56;100.00
53522;BME280;39398;48.382;9.802;2023-01-09T10:01:08;92630.66;;;3.67;100.00
53522;BME280;39398;48.382;9.802;2023-01-09T10:06:15;92631.47;;;3.53;100.00
53522;BME280;39398;48.382;9.802;2023-01-09T10:11:24;92628.28;;;3.72;100.00
53522;BME280;39398;48.382;9.802;2023-01-09T10:16:51;92623.72;;;3.60;100.00
53522;BME280;39398;48.382;9.802;2023-01-09T10:22:16;92632.09;;;3.55;100.00
53522;BME280;39398;48.382;9.802;2023-01-09T10:27:34;92623.16;;;3.79;100.00
53522;BME280;39398;48.382;9.802;2023-01-09T10:32:52;92626.03;;;3.99;100.00
53522;BME280;39398;48.382;9.802;2023-01-09T10:38:00;92633.84;;;3.99;100.00
53522;BME280;39398;48.382;9.802;2023-01-09T10:43:08;92638.94;;;4.22;100.00
53522;BME280;39398;48.382;9.802;2023-01-09T10:48:19;92632.06;;;4.21;100.00
53522;BME280;39398;48.382;9.802;2023-01-09T10:53:27;92636.50;;;4.20;100.00
53522;BME280;39398;48.382;9.802;2023-01-09T10:58:34;92627.75;;;4.50;100.00
53522;BME280;39398;48.382;9.802;2023-01-09T11:03:38;92624.03;;;4.37;100.00
53522;BME280;39398;48.382;9.802;2023-01-09T11:08:43;92618.41;;;4.62;100.00
53522;BME280;39398;48.382;9.802;2023-01-09T11:14:03;92618.22;;;4.42;100.00
53522;BME280;39398;48.382;9.802;2023-01-09T11:19:12;92625.38;;;4.33;100.00
53522;BME280;39398;48.382;9.802;2023-01-09T11:24:28;92623.47;;;4.42;100.00
53522;BME280;39398;48.382;9.802;2023-01-09T11:29:32;92632.22;;;4.77;100.00
53522;BME280;39398;48.382;9.802;2023-01-09T11:34:36;92636.34;;;4.86;100.00
53522;BME280;39398;48.382;9.802;2023-01-09T11:39:43;92627.19;;;4.76;100.00
53522;BME280;39398;48.382;9.802;2023-01-09T11:44:56;92633.44;;;4.53;100.00
53522;BME280;39398;48.382;9.802;2023-01-09T11:50:17;92631.53;;;4.69;100.00
53522;BME280;39398;48.382;9.802;2023-01-09T11:55:21;92630.28;;;4.43;100.00
53522;BME280;39398;48.382;9.802;2023-01-09T12:00:37;92626.38;;;4.54;100.00
53522;BME280;39398;48.382;9.802;2023-01-09T12:05:47;92623.91;;;4.67;100.00
53522;BME280;39398;48.382;9.802;2023-01-09T12:11:26;92622.34;;;4.51;100.00
53522;BME280;39398;48.382;9.802;2023-01-09T12:16:36;92627.25;;;4.61;100.00
53522;BME280;39398;48.382;9.802;2023-01-09T12:21:47;92621.41;;;4.80;100.00
53522;BME280;39398;48.382;9.802;2023-01-09T12:27:06;92604.34;;;4.41;100.00
53522;BME280;39398;48.382;9.802;2023-01-09T12:32:28;92617.22;;;4.64;100.00
53522;BME280;39398;48.382;9.802;2023-01-09T12:37:52;92611.88;;;4.73;100.00
53522;BME280;39398;48.382;9.802;2023-01-09T12:43:07;92619.25;;;4.90;100.00
53522;BME280;39398;48.382;9.802;2023-01-09T12:48:23;92605.00;;;4.93;100.00
53522;BME280;39398;48.382;9.802;2023-01-09T12:53:29;92616.63;;;5.12;100.00
53522;BME280;39398;48.382;9.802;2023-01-09T12:58:39;92618.94;;;5.00;100.00
53522;BME280;39398;48.382;9.802;2023-01-09T13:03:48;92623.78;;;5.03;100.00
53522;BME280;39398;48.382;9.802;2023-01-09T13:09:05;92624.38;;;4.99;100.00
53522;BME280;39398;48.382;9.802;2023-01-09T13:14:13;92630.91;;;4.88;100.00
53522;BME280;39398;48.382;9.802;2023-01-09T13:19:26;92624.81;;;4.81;100.00
53522;BME280;39398;48.382;9.802;2023-01-09T13:24:33;92624.38;;;4.77;100.00
53522;BME280;39398;48.382;9.802;2023-01-09T13:29:40;92625.06;;;4.43;100.00
53522;BME280;39398;48.382;9.802;2023-01-09T13:34:46;92635.59;;;4.28;100.00
53522;BME280;39398;48.382;9.802;2023-01-09T13:39:56;92651.69;;;4.32;100.00
53522;BME280;39398;48.382;9.802;2023-01-09T13:45:09;92658.16;;;4.00;100.00
53522;BME280;39398;48.382;9.802;2023-01-09T13:50:24;92645.44;;;4.11;100.00
53522;BME280;39398;48.382;9.802;2023-01-09T13:55:29;92645.31;;;4.19;100.00
53522;BME280;39398;48.382;9.802;2023-01-09T14:00:57;92644.47;;;4.34;100.00
53522;BME280;39398;48.382;9.802;2023-01-09T14:06:21;92659.03;;;4.07;100.00
53522;BME280;39398;48.382;9.802;2023-01-09T14:11:32;92664.03;;;3.87;100.00
53522;BME280;39398;48.382;9.802;2023-01-09T14:16:36;92671.34;;;4.28;100.00
53522;BME280;39398;48.382;9.802;2023-01-09T14:21:46;92676.75;;;4.26;100.00
53522;BME280;39398;48.382;9.802;2023-01-09T14:26:51;92674.09;;;4.41;100.00
53522;BME280;39398;48.382;9.802;2023-01-09T14:37:36;92691.78;;;4.24;100.00
53522;BME280;39398;48.382;9.802;2023-01-09T14:42:43;92695.75;;;4.20;100.00
53522;BME280;39398;48.382;9.802;2023-01-09T14:47:51;92693.06;;;4.28;100.00
53522;BME280;39398;48.382;9.802;2023-01-09T14:53:02;92712.78;;;4.31;100.00
53522;BME280;39398;48.382;9.802;2023-01-09T14:58:11;92716.72;;;4.41;100.00
53522;BME280;39398;48.382;9.802;2023-01-09T15:03:16;92729.88;;;4.33;100.00
53522;BME280;39398;48.382;9.802;2023-01-09T15:08:22;92729.00;;;4.26;100.00
53522;BME280;39398;48.382;9.802;2023-01-09T15:13:34;92742.16;;;3.59;100.00
53522;BME280;39398;48.382;9.802;2023-01-09T15:18:40;92753.06;;;3.92;100.00
53522;BME280;39398;48.382;9.802;2023-01-09T15:23:45;92756.94;;;3.81;100.00
53522;BME280;39398;48.382;9.802;2023-01-09T15:28:51;92766.94;;;4.07;100.00
53522;BME280;39398;48.382;9.802;2023-01-09T15:33:54;92768.47;;;4.16;100.00
53522;BME280;39398;48.382;9.802;2023-01-09T15:38:59;92777.66;;;4.12;100.00
53522;BME280;39398;48.382;9.802;2023-01-09T15:44:02;92779.78;;;4.24;100.00
53522;BME280;39398;48.382;9.802;2023-01-09T15:49:04;92790.69;;;4.27;100.00
53522;BME280;39398;48.382;9.802;2023-01-09T15:54:12;92789.56;;;4.15;100.00
53522;BME280;39398;48.382;9.802;2023-01-09T15:59:21;92797.84;;;4.18;100.00
53522;BME280;39398;48.382;9.802;2023-01-09T16:04:24;92804.75;;;4.11;100.00
53522;BME280;39398;48.382;9.802;2023-01-09T16:09:29;92803.13;;;4.10;100.00
53522;BME280;39398;48.382;9.802;2023-01-09T16:14:33;92807.09;;;4.06;100.00
53522;BME280;39398;48.382;9.802;2023-01-09T16:19:45;92834.56;;;4.02;100.00
53522;BME280;39398;48.382;9.802;2023-01-09T16:24:50;92840.50;;;3.96;100.00
53522;BME280;39398;48.382;9.802;2023-01-09T16:29:56;92843.94;;;3.96;100.00
53522;BME280;39398;48.382;9.802;2023-01-09T16:35:01;92865.81;;;3.58;100.00
53522;BME280;39398;48.382;9.802;2023-01-09T16:45:36;92856.91;;;3.21;100.00
53522;BME280;39398;48.382;9.802;2023-01-09T16:50:38;92855.31;;;3.43;100.00
53522;BME280;39398;48.382;9.802;2023-01-09T16:55:40;92880.34;;;3.52;100.00
53522;BME280;39398;48.382;9.802;2023-01-09T17:00:43;92887.19;;;3.30;100.00
53522;BME280;39398;48.382;9.802;2023-01-09T17:05:47;92880.41;;;3.44;100.00
53522;BME280;39398;48.382;9.802;2023-01-09T17:10:49;92883.66;;;3.46;100.00
53522;BME280;39398;48.382;9.802;2023-01-09T17:15:52;92883.00;;;3.44;100.00
53522;BME280;39398;48.382;9.802;2023-01-09T17:20:56;92886.94;;;3.40;100.00
53522;BME280;39398;48.382;9.802;2023-01-09T17:25:58;92885.03;;;3.34;100.00
53522;BME280;39398;48.382;9.802;2023-01-09T17:31:03;92883.56;;;3.31;100.00
53522;BME280;39398;48.382;9.802;2023-01-09T17:36:16;92891.81;;;3.20;100.00
53522;BME280;39398;48.382;9.802;2023-01-09T17:41:19;92919.19;;;3.16;100.00
53522;BME280;39398;48.382;9.802;2023-01-09T17:46:25;92922.47;;;3.18;100.00
53522;BME280;39398;48.382;9.802;2023-01-09T17:51:27;92938.28;;;3.16;100.00
53522;BME280;39398;48.382;9.802;2023-01-09T17:56:32;92940.94;;;3.08;100.00
53522;BME280;39398;48.382;9.802;2023-01-09T18:01:36;92944.56;;;2.99;100.00
53522;BME280;39398;48.382;9.802;2023-01-09T18:06:37;92949.16;;;2.89;100.00
53522;BME280;39398;48.382;9.802;2023-01-09T18:11:39;92954.66;;;3.02;100.00
53522;BME280;39398;48.382;9.802;2023-01-09T18:16:42;92968.50;;;3.02;100.00
53522;BME280;39398;48.382;9.802;2023-01-09T18:21:44;92968.81;;;2.99;100.00
53522;BME280;39398;48.382;9.802;2023-01-09T18:26:45;92970.63;;;2.99;100.00
53522;BME280;39398;48.382;9.802;2023-01-09T18:31:48;92975.03;;;2.90;100.00
53522;BME280;39398;48.382;9.802;2023-01-09T18:36:50;92982.00;;;2.50;100.00
53522;BME280;39398;48.382;9.802;2023-01-09T18:41:51;92995.91;;;2.90;100.00
53522;BME280;39398;48.382;9.802;2023-01-09T18:46:55;93009.47;;;2.77;100.00
53522;BME280;39398;48.382;9.802;2023-01-09T18:51:56;93019.41;;;2.82;100.00
53522;BME280;39398;48.382;9.802;2023-01-09T18:56:58;93030.50;;;2.68;100.00
53522;BME280;39398;48.382;9.802;2023-01-09T19:02:01;93031.97;;;2.78;100.00
53522;BME280;39398;48.382;9.802;2023-01-09T19:07:02;93044.50;;;2.75;100.00
53522;BME280;39398;48.382;9.802;2023-01-09T19:12:04;93051.78;;;2.96;100.00
53522;BME280;39398;48.382;9.802;2023-01-09T19:17:07;93049.84;;;2.90;100.00
53522;BME280;39398;48.382;9.802;2023-01-09T19:22:09;93061.63;;;2.61;100.00
53522;BME280;39398;48.382;9.802;2023-01-09T19:27:10;93073.53;;;2.55;100.00
53522;BME280;39398;48.382;9.802;2023-01-09T19:32:13;93081.31;;;2.64;100.00
53522;BME280;39398;48.382;9.802;2023-01-09T19:37:15;93075.63;;;2.68;100.00
53522;BME280;39398;48.382;9.802;2023-01-09T19:42:16;93086.88;;;2.69;100.00
53522;BME280;39398;48.382;9.802;2023-01-09T19:47:19;93083.78;;;2.57;100.00
53522;BME280;39398;48.382;9.802;2023-01-09T19:52:21;93101.69;;;2.68;100.00
53522;BME280;39398;48.382;9.802;2023-01-09T19:57:22;93109.03;;;2.56;100.00
53522;BME280;39398;48.382;9.802;2023-01-09T20:02:26;93110.16;;;2.62;100.00
53522;BME280;39398;48.382;9.802;2023-01-09T20:07:28;93122.06;;;2.81;100.00
53522;BME280;39398;48.382;9.802;2023-01-09T20:12:30;93122.38;;;2.78;100.00
53522;BME280;39398;48.382;9.802;2023-01-09T20:17:33;93130.34;;;2.85;100.00
53522;BME280;39398;48.382;9.802;2023-01-09T20:22:35;93136.69;;;2.90;100.00
53522;BME280;39398;48.382;9.802;2023-01-09T20:27:36;93142.72;;;2.91;100.00
53522;BME280;39398;48.382;9.802;2023-01-09T20:32:39;93146.28;;;2.90;100.00
53522;BME280;39398;48.382;9.802;2023-01-09T20:37:41;93145.50;;;2.81;100.00
53522;BME280;39398;48.382;9.802;2023-01-09T20:42:42;93147.94;;;2.83;100.00
53522;BME280;39398;48.382;9.802;2023-01-09T20:47:45;93149.56;;;2.92;100.00
53522;BME280;39398;48.382;9.802;2023-01-09T20:52:47;93161.78;;;2.99;100.00
53522;BME280;39398;48.382;9.802;2023-01-09T20:57:48;93175.16;;;2.88;100.00
53522;BME280;39398;48.382;9.802;2023-01-09T21:02:51;93182.00;;;2.81;100.00
53522;BME280;39398;48.382;9.802;2023-01-09T21:07:53;93186.56;;;2.95;100.00
53522;BME280;39398;48.382;9.802;2023-01-09T21:12:54;93194.22;;;2.97;100.00
53522;BME280;39398;48.382;9.802;2023-01-09T21:17:57;93199.94;;;3.00;100.00
53522;BME280;39398;48.382;9.802;2023-01-09T21:22:59;93210.19;;;2.94;100.00
53522;BME280;39398;48.382;9.802;2023-01-09T21:28:00;93213.94;;;2.91;100.00
53522;BME280;39398;48.382;9.802;2023-01-09T21:33:03;93219.63;;;3.03;100.00
53522;BME280;39398;48.382;9.802;2023-01-09T21:38:05;93217.69;;;2.97;100.00
53522;BME280;39398;48.382;9.802;2023-01-09T21:43:07;93233.31;;;3.05;100.00
53522;BME280;39398;48.382;9.802;2023-01-09T21:48:11;93242.63;;;2.91;100.00
53522;BME280;39398;48.382;9.802;2023-01-09T21:53:13;93254.69;;;3.00;100.00
53522;BME280;39398;48.382;9.802;2023-01-09T21:58:14;93254.66;;;2.92;100.00
53522;BME280;39398;48.382;9.802;2023-01-09T22:03:17;93261.00;;;2.90;100.00
53522;BME280;39398;48.382;9.802;2023-01-09T22:08:19;93274.22;;;2.96;100.00
53522;BME280;39398;48.382;9.802;2023-01-09T22:13:21;93285.97;;;3.00;100.00
53522;BME280;39398;48.382;9.802;2023-01-09T22:18:24;93288.09;;;3.13;100.00
53522;BME280;39398;48.382;9.802;2023-01-09T22:23:26;93300.75;;;2.84;100.00
53522;BME280;39398;48.382;9.802;2023-01-09T22:28:27;93308.44;;;2.93;100.00
53522;BME280;39398;48.382;9.802;2023-01-09T22:33:30;93316.25;;;2.93;100.00
53522;BME280;39398;48.382;9.802;2023-01-09T22:38:32;93310.53;;;2.82;100.00
53522;BME280;39398;48.382;9.802;2023-01-09T22:43:33;93315.22;;;2.70;100.00
53522;BME280;39398;48.382;9.802;2023-01-09T22:48:37;93323.91;;;2.78;100.00
53522;BME280;39398;48.382;9.802;2023-01-09T22:53:39;93337.00;;;2.52;100.00
53522;BME280;39398;48.382;9.802;2023-01-09T22:58:41;93350.88;;;2.61;100.00
53522;BME280;39398;48.382;9.802;2023-01-09T23:03:44;93342.41;;;2.67;100.00
53522;BME280;39398;48.382;9.802;2023-01-09T23:08:46;93346.50;;;2.70;100.00
53522;BME280;39398;48.382;9.802;2023-01-09T23:13:48;93357.09;;;2.68;100.00
53522;BME280;39398;48.382;9.802;2023-01-09T23:18:51;93345.91;;;2.42;100.00
53522;BME280;39398;48.382;9.802;2023-01-09T23:23:52;93363.06;;;2.61;100.00
53522;BME280;39398;48.382;9.802;2023-01-09T23:28:54;93368.03;;;2.72;100.00
53522;BME280;39398;48.382;9.802;2023-01-09T23:33:57;93377.19;;;2.84;100.00
53522;BME280;39398;48.382;9.802;2023-01-09T23:38:59;93379.06;;;2.66;100.00
53522;BME280;39398;48.382;9.802;2023-01-09T23:44:00;93389.25;;;2.51;100.00
53522;BME280;39398;48.382;9.802;2023-01-09T23:49:03;93401.72;;;2.39;100.00
53522;BME280;39398;48.382;9.802;2023-01-09T23:54:05;93411.75;;;2.26;100.00
53522;BME280;39398;48.382;9.802;2023-01-09T23:59:07;93412.88;;;2.23;100.00
